Time;durP1;ratioP1;P1;durP2;ratioP2;P2;SDS_P1;SDS_P2;PMS_P1;PMS_P2;Temp;Humidity;BMP_temperature;BMP_pressure;BME280_temperature;BME280_humidity;BME280_pressure;Samples;Min_cycle;Max_cycle;Signal;HPM_P1;HPM_P2
2021/01/24 00:01:14;;;;;;;0.30;0.30;;;2.60;83.70;;;;;;5055137;28;20108;-75
2021/01/24 00:03:39;;;;;;;0.50;0.40;;;2.70;83.40;;;;;;5055354;28;20138;-74
2021/01/24 00:06:05;;;;;;;0.80;0.30;;;2.70;83.40;;;;;;5055208;28;20037;-75
2021/01/24 00:08:31;;;;;;;0.82;0.40;;;2.70;82.90;;;;;;5055307;28;20032;-76
2021/01/24 00:10:57;;;;;;;4.95;0.77;;;2.70;82.60;;;;;;5054138;28;20037;-74
2021/01/24 00:13:22;;;;;;;0.57;0.30;;;2.70;82.80;;;;;;5053841;28;20405;-80
2021/01/24 00:15:51;;;;;;;0.45;0.30;;;2.70;82.70;;;;;;5054029;28;20021;-74
2021/01/24 00:18:16;;;;;;;5.47;2.63;;;2.80;82.70;;;;;;5053829;28;20025;-74
2021/01/24 00:20:42;;;;;;;7.18;2.40;;;2.80;83.00;;;;;;5055049;28;20373;-74
2021/01/24 00:23:07;;;;;;;0.30;0.30;;;2.80;84.40;;;;;;5053748;28;20079;-73
2021/01/24 00:25:33;;;;;;;0.80;0.25;;;2.80;83.00;;;;;;5052888;28;20025;-74
2021/01/24 00:27:58;;;;;;;0.60;0.30;;;2.80;82.90;;;;;;5053270;28;20021;-74
2021/01/24 00:30:24;;;;;;;0.43;0.30;;;2.70;82.90;;;;;;5053853;28;20032;-74
2021/01/24 00:32:50;;;;;;;0.40;0.28;;;2.60;82.80;;;;;;5053116;28;20029;-74
2021/01/24 00:35:16;;;;;;;0.68;0.20;;;2.60;83.20;;;;;;5053272;28;20508;-74
2021/01/24 00:37:42;;;;;;;0.47;0.20;;;2.60;82.40;;;;;;5052914;28;20025;-74
2021/01/24 00:40:08;;;;;;;0.70;0.30;;;2.60;81.90;;;;;;5052664;28;20094;-74
2021/01/24 00:42:34;;;;;;;0.13;0.10;;;2.60;81.50;;;;;;5052880;28;20021;-75
2021/01/24 00:45:00;;;;;;;0.63;0.20;;;2.70;80.80;;;;;;5053008;28;20032;-76
2021/01/24 00:47:25;;;;;;;0.28;0.10;;;2.70;79.80;;;;;;5054009;28;20379;-78
2021/01/24 00:49:51;;;;;;;0.52;0.20;;;2.80;79.10;;;;;;5054199;28;20068;-76
2021/01/24 00:52:17;;;;;;;0.45;0.20;;;2.70;78.90;;;;;;5052175;28;20028;-76
2021/01/24 00:54:42;;;;;;;0.57;0.28;;;2.70;79.40;;;;;;5052629;28;20386;-74
2021/01/24 00:57:08;;;;;;;0.17;0.17;;;2.60;79.60;;;;;;5052527;28;20025;-78
2021/01/24 00:59:34;;;;;;;0.20;0.20;;;2.60;80.30;;;;;;5053667;28;20029;-80
2021/01/24 01:02:00;;;;;;;0.20;0.20;;;2.50;80.50;;;;;;5052614;28;20086;-79
2021/01/24 01:04:25;;;;;;;1.38;0.28;;;2.60;80.50;;;;;;5054098;28;20108;-78
2021/01/24 01:06:52;;;;;;;0.20;0.17;;;2.60;80.10;;;;;;5052547;28;20471;-77
2021/01/24 01:09:18;;;;;;;0.50;0.28;;;2.60;80.50;;;;;;5052836;28;20021;-79
2021/01/24 01:11:43;;;;;;;0.50;0.30;;;2.60;80.10;;;;;;5052775;28;20027;-77
2021/01/24 01:14:09;;;;;;;0.40;0.30;;;2.60;80.20;;;;;;5052220;28;20450;-79
2021/01/24 01:16:34;;;;;;;0.20;0.17;;;2.60;80.40;;;;;;5052839;28;20033;-75
2021/01/24 01:19:00;;;;;;;0.80;0.35;;;2.70;80.60;;;;;;5054022;28;20021;-78
2021/01/24 01:21:26;;;;;;;0.35;0.10;;;2.70;80.70;;;;;;5053953;28;20025;-78
2021/01/24 01:23:51;;;;;;;0.22;0.20;;;2.60;81.40;;;;;;5053769;28;20025;-78
2021/01/24 01:26:17;;;;;;;0.43;0.25;;;2.60;80.90;;;;;;5051495;28;20052;-76
2021/01/24 01:28:43;;;;;;;0.40;0.22;;;2.70;80.90;;;;;;5053486;28;20024;-77
2021/01/24 01:31:08;;;;;;;0.63;0.38;;;2.70;80.70;;;;;;5053766;28;20021;-75
2021/01/24 01:33:34;;;;;;;1.23;0.20;;;2.60;79.80;;;;;;5052284;28;20485;-74
2021/01/24 01:36:00;;;;;;;0.65;0.40;;;2.50;80.60;;;;;;5053680;28;20028;-74
2021/01/24 01:38:25;;;;;;;0.60;0.10;;;2.50;79.60;;;;;;5052079;28;20118;-75
2021/01/24 01:40:51;;;;;;;0.05;0.05;;;2.50;79.60;;;;;;5053284;28;20033;-76
2021/01/24 01:43:17;;;;;;;1.38;0.20;;;2.40;79.80;;;;;;5051452;28;20056;-75
2021/01/24 01:45:43;;;;;;;0.10;0.10;;;2.40;80.40;;;;;;5051970;28;20057;-74
2021/01/24 01:48:09;;;;;;;0.03;0.03;;;2.40;79.70;;;;;;5052412;28;20029;-74
2021/01/24 01:50:34;;;;;;;0.15;0.10;;;2.40;79.50;;;;;;5052057;28;20112;-74
2021/01/24 01:53:00;;;;;;;0.15;0.10;;;2.50;79.90;;;;;;5052467;28;20549;-75
2021/01/24 01:55:27;;;;;;;0.85;0.50;;;2.50;79.50;;;;;;5052392;28;20036;-74
2021/01/24 01:57:54;;;;;;;0.30;0.17;;;2.40;79.50;;;;;;5052231;28;20378;-75
2021/01/24 02:00:20;;;;;;;0.10;0.10;;;2.40;79.70;;;;;;5052313;28;20025;-74
2021/01/24 02:02:55;;;;;;;0.38;0.10;;;2.40;80.60;;;;;;5051467;28;20053;-74
2021/01/24 02:05:38;;;;;;;0.10;0.10;;;2.30;81.70;;;;;;5052250;28;20029;-76
2021/01/24 02:08:06;;;;;;;0.30;0.30;;;2.20;80.90;;;;;;5052002;28;20029;-75
2021/01/24 02:10:52;;;;;;;0.20;0.20;;;2.20;80.30;;;;;;5052027;28;20025;-75
2021/01/24 02:13:34;;;;;;;0.20;0.10;;;2.10;81.10;;;;;;5052184;28;20037;-74
2021/01/24 02:16:02;;;;;;;0.20;0.10;;;2.00;81.40;;;;;;5052369;28;20029;-77
2021/01/24 02:18:31;;;;;;;0.20;0.20;;;1.90;82.40;;;;;;5052463;28;20481;-77
2021/01/24 02:21:08;;;;;;;0.75;0.20;;;1.80;82.40;;;;;;5052267;28;20103;-75
2021/01/24 02:23:35;;;;;;;0.13;0.13;;;1.70;82.00;;;;;;5053879;28;20025;-75
2021/01/24 02:26:32;;;;;;;0.22;0.20;;;1.70;82.20;;;;;;5053382;28;20029;-76
2021/01/24 02:29:05;;;;;;;0.10;0.10;;;1.60;82.30;;;;;;5042088;28;20044;-75
2021/01/24 02:31:33;;;;;;;2.33;0.20;;;1.50;83.70;;;;;;5053554;28;20487;-74
2021/01/24 02:34:00;;;;;;;0.70;0.20;;;1.40;85.40;;;;;;5052391;28;20087;-74
2021/01/24 02:36:28;;;;;;;0.30;0.30;;;1.40;86.10;;;;;;5054056;28;20021;-74
2021/01/24 02:38:55;;;;;;;0.20;0.20;;;1.30;87.10;;;;;;5056549;28;20025;-74
2021/01/24 02:41:21;;;;;;;0.47;0.32;;;1.30;86.80;;;;;;5052148;28;20482;-75
2021/01/24 02:43:48;;;;;;;0.65;0.50;;;1.20;87.30;;;;;;5052436;28;20465;-75
2021/01/24 02:46:16;;;;;;;0.30;0.30;;;1.10;89.00;;;;;;5052829;28;20029;-74
2021/01/24 02:48:45;;;;;;;0.35;0.20;;;1.10;88.30;;;;;;5054478;28;20052;-76
2021/01/24 02:51:13;;;;;;;0.30;0.30;;;1.10;87.90;;;;;;5055906;28;20028;-74
2021/01/24 02:53:39;;;;;;;0.70;0.28;;;1.10;88.10;;;;;;5053732;28;20033;-74
2021/01/24 02:56:07;;;;;;;0.30;0.30;;;1.10;88.10;;;;;;5056073;28;20028;-74
2021/01/24 02:58:32;;;;;;;0.57;0.30;;;1.10;87.40;;;;;;5055589;28;20029;-73
2021/01/24 03:00:58;;;;;;;0.35;0.28;;;1.10;85.60;;;;;;5055364;28;20067;-74
2021/01/24 03:03:25;;;;;;;1.30;0.30;;;1.10;83.60;;;;;;5056786;28;20110;-73
2021/01/24 03:05:51;;;;;;;0.38;0.30;;;1.10;81.80;;;;;;5055653;28;20477;-73
2021/01/24 03:08:18;;;;;;;0.22;0.22;;;1.10;81.00;;;;;;5055041;28;20025;-76
2021/01/24 03:10:43;;;;;;;0.88;0.32;;;1.10;79.70;;;;;;5055111;28;20021;-74
2021/01/24 03:13:18;;;;;;;0.43;0.40;;;1.10;78.10;;;;;;5055450;28;20040;-74
2021/01/24 03:15:45;;;;;;;0.45;0.30;;;1.10;76.50;;;;;;5057726;28;20080;-73
2021/01/24 03:18:16;;;;;;;0.30;0.30;;;1.00;75.90;;;;;;5054954;28;20021;-74
2021/01/24 03:20:43;;;;;;;0.30;0.30;;;0.90;76.00;;;;;;5055591;28;20029;-74
2021/01/24 03:23:09;;;;;;;0.55;0.40;;;0.90;75.80;;;;;;5055551;28;20025;-74
2021/01/24 03:25:38;;;;;;;0.40;0.40;;;0.80;75.60;;;;;;5056784;28;20505;-76
2021/01/24 03:28:07;;;;;;;1.15;0.40;;;0.80;75.20;;;;;;5058588;28;20021;-73
2021/01/24 03:30:33;;;;;;;0.38;0.38;;;0.80;74.80;;;;;;5062228;28;20021;-74
2021/01/24 03:33:00;;;;;;;0.30;0.30;;;0.70;74.60;;;;;;5055792;28;20548;-77
2021/01/24 03:35:26;;;;;;;0.85;0.50;;;0.70;74.50;;;;;;5054456;28;20083;-74
2021/01/24 03:37:51;;;;;;;0.55;0.50;;;0.70;74.30;;;;;;5054327;28;20033;-74
2021/01/24 03:40:17;;;;;;;1.05;0.45;;;0.70;73.70;;;;;;5054560;28;20017;-73
2021/01/24 03:42:42;;;;;;;0.75;0.60;;;0.80;73.20;;;;;;5054295;28;20044;-75
2021/01/24 03:45:10;;;;;;;0.98;0.70;;;0.80;72.70;;;;;;5054618;28;20029;-75
2021/01/24 03:47:36;;;;;;;1.02;0.60;;;0.80;72.50;;;;;;5037838;28;20091;-74
2021/01/24 03:50:03;;;;;;;0.70;0.70;;;0.70;72.70;;;;;;5054472;28;20025;-74
2021/01/24 03:52:28;;;;;;;0.88;0.82;;;0.70;73.00;;;;;;5054983;28;20021;-79
2021/01/24 03:54:54;;;;;;;1.33;0.70;;;0.60;73.20;;;;;;5067952;28;20040;-74
2021/01/24 03:57:19;;;;;;;1.48;0.95;;;0.60;73.70;;;;;;5057684;28;20021;-74
2021/01/24 03:59:49;;;;;;;4.95;1.63;;;0.60;73.90;;;;;;5055519;28;20024;-73
2021/01/24 04:02:16;;;;;;;1.85;0.80;;;0.60;73.70;;;;;;5054365;28;20071;-74
2021/01/24 04:04:41;;;;;;;2.38;1.45;;;0.60;73.50;;;;;;5054023;28;20025;-75
2021/01/24 04:07:07;;;;;;;1.58;1.10;;;0.60;73.70;;;;;;5053212;28;20037;-79
2021/01/24 04:09:32;;;;;;;2.30;1.10;;;0.50;73.40;;;;;;5054088;28;20043;-79
2021/01/24 04:11:58;;;;;;;1.35;0.98;;;0.50;73.50;;;;;;5054116;28;20021;-79
2021/01/24 04:14:24;;;;;;;1.10;0.98;;;0.50;73.50;;;;;;5053434;28;20052;-78
2021/01/24 04:16:49;;;;;;;4.47;1.80;;;0.40;72.70;;;;;;5053460;28;20021;-73
2021/01/24 04:19:15;;;;;;;1.73;1.20;;;0.40;71.20;;;;;;5053502;28;20029;-73
2021/01/24 04:21:40;;;;;;;2.75;1.42;;;0.30;70.50;;;;;;5053437;28;20081;-73
2021/01/24 04:24:06;;;;;;;2.60;1.40;;;0.40;70.40;;;;;;5053452;28;20074;-73
2021/01/24 04:26:32;;;;;;;1.73;1.08;;;0.40;69.90;;;;;;5052887;28;20401;-74
2021/01/24 04:28:58;;;;;;;1.40;1.25;;;0.40;70.10;;;;;;5053592;28;20074;-73
2021/01/24 04:31:23;;;;;;;2.00;1.10;;;0.40;70.00;;;;;;5053461;28;20029;-74
2021/01/24 04:33:49;;;;;;;2.88;1.30;;;0.40;70.10;;;;;;5053397;28;20072;-73
2021/01/24 04:36:14;;;;;;;1.83;1.23;;;0.40;70.20;;;;;;5053150;28;20021;-73
2021/01/24 04:38:40;;;;;;;1.48;1.30;;;0.40;70.40;;;;;;5053216;28;20503;-74
2021/01/24 04:41:06;;;;;;;3.03;1.27;;;0.30;70.90;;;;;;5053118;28;20025;-73
2021/01/24 04:43:33;;;;;;;2.50;1.63;;;0.30;71.30;;;;;;5053273;28;20079;-74
2021/01/24 04:46:00;;;;;;;2.83;1.20;;;0.20;72.00;;;;;;5053067;28;20469;-73
2021/01/24 04:48:26;;;;;;;1.55;1.15;;;0.20;72.20;;;;;;5052972;28;20135;-73
2021/01/24 04:50:59;;;;;;;2.50;1.55;;;0.30;72.40;;;;;;5053354;28;20021;-73
2021/01/24 04:53:25;;;;;;;2.78;1.17;;;0.30;72.80;;;;;;5053177;28;20508;-74
2021/01/24 04:55:51;;;;;;;2.05;1.45;;;0.10;73.90;;;;;;5052816;28;20041;-73
2021/01/24 04:58:17;;;;;;;1.65;1.25;;;0.20;75.00;;;;;;5052881;28;20397;-74
2021/01/24 05:00:43;;;;;;;5.88;1.05;;;0.10;76.40;;;;;;5052981;28;20079;-73
2021/01/24 05:03:09;;;;;;;1.45;1.23;;;0.10;76.60;;;;;;5052500;28;20498;-74
2021/01/24 05:05:34;;;;;;;2.95;1.30;;;0.10;76.90;;;;;;5052661;28;20032;-74
2021/01/24 05:08:00;;;;;;;3.80;1.63;;;0.00;76.90;;;;;;5052549;28;20025;-73
2021/01/24 05:10:28;;;;;;;2.10;1.17;;;-0.10;76.90;;;;;;5052501;28;20029;-73
2021/01/24 05:12:55;;;;;;;1.83;1.50;;;-0.10;76.40;;;;;;5052534;28;20029;-73
2021/01/24 05:15:21;;;;;;;2.45;1.10;;;0.00;75.70;;;;;;5052603;28;20025;-73
2021/01/24 05:17:50;;;;;;;4.80;1.40;;;-0.10;75.60;;;;;;5052651;28;20020;-74
2021/01/24 05:20:16;;;;;;;3.00;1.48;;;0.00;75.30;;;;;;5052671;28;20030;-74
2021/01/24 05:22:42;;;;;;;4.28;2.10;;;0.00;74.80;;;;;;5052627;28;20367;-72
2021/01/24 05:25:09;;;;;;;3.17;1.83;;;0.00;74.30;;;;;;5052501;28;20115;-73
2021/01/24 05:27:34;;;;;;;2.47;1.60;;;0.00;73.90;;;;;;5052446;28;20363;-73
2021/01/24 05:30:00;;;;;;;3.22;2.00;;;-0.10;73.70;;;;;;5052245;28;20025;-74
2021/01/24 05:32:25;;;;;;;2.05;1.48;;;-0.10;73.80;;;;;;5051990;28;20434;-73
2021/01/24 05:34:51;;;;;;;2.42;1.80;;;-0.10;73.90;;;;;;5052155;28;20029;-73
2021/01/24 05:37:17;;;;;;;1.42;1.30;;;-0.10;73.90;;;;;;5052234;28;20021;-73
2021/01/24 05:39:43;;;;;;;1.90;1.70;;;-0.10;74.40;;;;;;5052402;28;20033;-73
2021/01/24 05:42:11;;;;;;;1.50;1.30;;;-0.10;75.20;;;;;;5051977;28;20116;-73
2021/01/24 05:44:39;;;;;;;2.85;1.90;;;-0.10;76.90;;;;;;5051843;28;20020;-73
2021/01/24 05:47:05;;;;;;;2.72;1.85;;;-0.20;76.60;;;;;;5052251;28;20021;-74
2021/01/24 05:49:33;;;;;;;4.20;1.98;;;-0.30;77.30;;;;;;5051851;28;20401;-74
2021/01/24 05:52:09;;;;;;;3.03;2.30;;;-0.20;77.60;;;;;;5051959;28;20520;-74
2021/01/24 05:54:39;;;;;;;;;;;-0.20;78.00;;;;;;5052095;28;20559;-74
2021/01/24 05:57:05;;;;;;;5.55;2.10;;;-0.20;78.10;;;;;;5035438;28;20350;-74
2021/01/24 05:59:33;;;;;;;3.35;1.95;;;-0.20;78.60;;;;;;5051944;28;20104;-74
2021/01/24 06:01:59;;;;;;;5.28;2.58;;;-0.10;78.80;;;;;;5052004;28;20041;-74
2021/01/24 06:04:25;;;;;;;5.68;2.50;;;-0.10;79.20;;;;;;5053104;28;20025;-74
2021/01/24 06:06:51;;;;;;;5.55;1.92;;;0.00;80.50;;;;;;5051644;28;20399;-73
2021/01/24 06:09:18;;;;;;;3.65;2.40;;;-0.10;80.40;;;;;;5052003;28;20064;-74
2021/01/24 06:11:46;;;;;;;3.92;2.58;;;0.00;81.00;;;;;;5051779;28;20029;-74
2021/01/24 06:14:12;;;;;;;5.97;2.65;;;0.00;81.50;;;;;;5051845;28;20036;-73
2021/01/24 06:16:44;;;;;;;3.72;2.45;;;0.00;81.60;;;;;;5051341;28;20021;-74
2021/01/24 06:19:10;;;;;;;5.43;2.25;;;0.00;82.00;;;;;;5050880;28;20035;-73
2021/01/24 06:21:43;;;;;;;2.72;1.75;;;-0.10;81.90;;;;;;5051179;28;20017;-73
2021/01/24 06:24:17;;;;;;;4.97;1.48;;;-0.30;78.80;;;;;;5053064;28;20500;-73
2021/01/24 06:26:46;;;;;;;2.72;1.50;;;-0.40;76.90;;;;;;5051488;28;20032;-73
2021/01/24 06:29:12;;;;;;;3.80;1.60;;;-0.30;76.00;;;;;;5051067;28;20036;-74
2021/01/24 06:31:49;;;;;;;4.45;1.80;;;-0.40;75.00;;;;;;5051140;28;20029;-74
2021/01/24 06:34:15;;;;;;;4.13;1.75;;;-0.40;73.70;;;;;;5051339;28;20511;-72
2021/01/24 06:37:14;;;;;;;5.03;1.50;;;-0.30;72.10;;;;;;5051211;28;20115;-74
2021/01/24 06:39:50;;;;;;;5.95;1.60;;;-0.30;71.60;;;;;;5052785;28;20021;-73
2021/01/24 06:42:42;;;;;;;3.70;2.00;;;-0.30;70.30;;;;;;5052513;28;20392;-73
2021/01/24 06:45:26;;;;;;;2.67;1.48;;;-0.30;68.80;;;;;;5048713;28;20044;-72
2021/01/24 06:47:53;;;;;;;3.40;1.80;;;-0.30;67.40;;;;;;5052633;28;20024;-76
2021/01/24 06:50:39;;;;;;;2.03;1.50;;;-0.20;67.90;;;;;;5052677;28;20086;-75
2021/01/24 06:53:08;;;;;;;1.75;1.13;;;-0.20;67.40;;;;;;5052729;28;20048;-75
2021/01/24 06:55:34;;;;;;;4.78;2.67;;;-0.30;67.90;;;;;;5052804;28;20029;-75
2021/01/24 06:58:29;;;;;;;2.90;1.35;;;-0.20;68.00;;;;;;5051426;28;20036;-75
2021/01/24 07:01:21;;;;;;;1.92;1.33;;;-0.30;67.60;;;;;;5052588;28;20351;-75
2021/01/24 07:03:48;;;;;;;3.38;1.30;;;-0.30;67.30;;;;;;5052472;28;20091;-75
2021/01/24 07:06:33;;;;;;;3.58;1.58;;;-0.30;66.70;;;;;;5052495;28;20024;-74
2021/01/24 07:08:59;;;;;;;5.78;1.30;;;-0.20;66.30;;;;;;5051094;28;20036;-75
2021/01/24 07:11:52;;;;;;;5.03;1.48;;;-0.20;66.00;;;;;;5052360;28;20512;-74
2021/01/24 07:14:38;;;;;;;2.70;1.70;;;-0.20;64.90;;;;;;5042691;28;20056;-73
2021/01/24 07:17:07;;;;;;;;;;;-0.30;64.80;;;;;;5039704;28;20444;-73
2021/01/24 07:19:37;;;;;;;4.15;2.35;;;-0.30;65.00;;;;;;5053609;28;19904;-73
2021/01/24 07:22:04;;;;;;;7.22;2.40;;;-0.20;64.80;;;;;;5051257;28;20412;-74
2021/01/24 07:24:30;;;;;;;4.72;1.85;;;-0.20;64.20;;;;;;5052180;28;20025;-74
2021/01/24 07:26:57;;;;;;;6.35;2.03;;;-0.10;64.20;;;;;;5052247;28;20025;-74
2021/01/24 07:29:23;;;;;;;6.13;1.70;;;-0.10;64.70;;;;;;5052096;28;20032;-75
2021/01/24 07:31:50;;;;;;;3.58;1.50;;;-0.10;65.40;;;;;;5052091;28;20100;-75
2021/01/24 07:34:21;;;;;;;5.38;1.80;;;-0.10;65.10;;;;;;5052012;28;20447;-76
2021/01/24 07:36:47;;;;;;;5.97;1.80;;;0.00;65.40;;;;;;5052039;28;20067;-74
2021/01/24 07:39:12;;;;;;;4.60;1.67;;;0.00;65.40;;;;;;5052070;28;20025;-74
2021/01/24 07:41:38;;;;;;;4.07;1.95;;;0.00;65.10;;;;;;5053787;28;20021;-75
2021/01/24 07:44:04;;;;;;;7.03;2.42;;;0.00;65.10;;;;;;5055650;28;20171;-77
2021/01/24 07:46:29;;;;;;;5.88;2.63;;;0.00;65.50;;;;;;5055419;28;20025;-75
2021/01/24 07:48:55;;;;;;;4.70;1.50;;;0.00;65.60;;;;;;5055613;28;20066;-75
2021/01/24 07:51:21;;;;;;;3.88;1.60;;;0.00;65.70;;;;;;5055333;28;20478;-76
2021/01/24 07:53:47;;;;;;;4.15;1.98;;;0.00;65.60;;;;;;5055447;28;20490;-77
2021/01/24 07:56:14;;;;;;;4.43;1.90;;;0.20;65.60;;;;;;5055378;28;20021;-74
2021/01/24 07:58:40;;;;;;;3.47;1.60;;;0.30;65.70;;;;;;5055338;28;20059;-79
2021/01/24 08:01:05;;;;;;;3.45;1.35;;;0.30;66.00;;;;;;5055169;28;20050;-78
2021/01/24 08:03:34;;;;;;;6.43;1.83;;;0.30;66.30;;;;;;5055297;28;20061;-75
2021/01/24 08:06:07;;;;;;;3.67;1.25;;;0.30;65.10;;;;;;5055279;28;20473;-77
2021/01/24 08:08:35;;;;;;;4.07;1.40;;;0.30;64.70;;;;;;5055190;28;20032;-78
2021/01/24 08:11:01;;;;;;;3.78;1.88;;;0.30;64.10;;;;;;5055248;28;20109;-77
2021/01/24 08:13:27;;;;;;;3.72;1.40;;;0.20;64.40;;;;;;5054937;28;20469;-76
2021/01/24 08:15:53;;;;;;;3.70;1.70;;;0.30;63.80;;;;;;5055075;28;20087;-78
2021/01/24 08:18:20;;;;;;;5.45;1.88;;;0.20;63.50;;;;;;5055047;28;20033;-77
2021/01/24 08:20:46;;;;;;;4.97;1.67;;;0.20;62.80;;;;;;5054997;28;20032;-76
2021/01/24 08:23:12;;;;;;;4.75;1.92;;;0.20;62.90;;;;;;5055006;28;20028;-78
2021/01/24 08:25:39;;;;;;;5.70;1.80;;;0.30;63.40;;;;;;5054826;28;20029;-74
2021/01/24 08:28:05;;;;;;;3.33;1.80;;;0.20;63.30;;;;;;5054798;28;20074;-79
2021/01/24 08:30:38;;;;;;;2.45;1.23;;;0.20;64.70;;;;;;5054578;28;20541;-75
2021/01/24 08:33:07;;;;;;;4.00;1.85;;;0.30;64.00;;;;;;5055414;28;20025;-73
2021/01/24 08:35:34;;;;;;;3.38;1.45;;;0.30;63.70;;;;;;5069438;28;20044;-74
2021/01/24 08:38:02;;;;;;;3.92;1.90;;;0.40;63.50;;;;;;5070933;28;20025;-74
2021/01/24 08:40:37;;;;;;;5.32;2.80;;;0.40;63.60;;;;;;5055125;28;20071;-76
2021/01/24 08:43:04;;;;;;;5.80;1.90;;;0.60;63.90;;;;;;5055405;28;20021;-76
2021/01/24 08:45:30;;;;;;;3.80;1.60;;;0.60;63.00;;;;;;5054328;28;20033;-76
2021/01/24 08:47:58;;;;;;;7.63;1.67;;;0.50;63.30;;;;;;5052878;28;20027;-74
2021/01/24 08:50:29;;;;;;;5.30;1.83;;;0.40;63.60;;;;;;5054257;28;20044;-74
2021/01/24 08:52:56;;;;;;;3.95;2.10;;;0.50;64.20;;;;;;5053810;28;20064;-74
2021/01/24 08:55:21;;;;;;;2.95;1.35;;;0.60;65.10;;;;;;5052894;28;20386;-76
2021/01/24 08:57:47;;;;;;;4.72;1.58;;;0.60;63.70;;;;;;5054177;28;20029;-78
2021/01/24 09:00:14;;;;;;;6.90;2.60;;;0.60;63.70;;;;;;5054298;28;20017;-75
2021/01/24 09:02:40;;;;;;;5.05;2.15;;;0.70;63.20;;;;;;5052641;28;20052;-75
2021/01/24 09:05:14;;;;;;;3.83;1.58;;;0.80;63.10;;;;;;5052934;28;20380;-77
2021/01/24 09:07:42;;;;;;;3.40;1.55;;;1.00;62.20;;;;;;5052915;28;20025;-77
2021/01/24 09:10:15;;;;;;;3.10;1.50;;;1.20;61.60;;;;;;5052795;28;20394;-76
2021/01/24 09:12:42;;;;;;;1.83;1.38;;;1.20;60.70;;;;;;5052611;28;20033;-76
2021/01/24 09:15:08;;;;;;;3.53;1.67;;;1.30;60.70;;;;;;5052299;28;20114;-75
2021/01/24 09:17:34;;;;;;;2.40;1.42;;;1.20;60.40;;;;;;5053715;28;20033;-75
2021/01/24 09:19:59;;;;;;;4.70;1.85;;;1.20;60.50;;;;;;5052452;28;20029;-76
2021/01/24 09:22:25;;;;;;;3.80;1.73;;;1.20;60.60;;;;;;5052233;28;20029;-76
2021/01/24 09:24:51;;;;;;;5.35;1.73;;;1.20;60.70;;;;;;5051819;28;20478;-78
2021/01/24 09:27:16;;;;;;;4.75;2.03;;;1.40;60.10;;;;;;5052181;28;20021;-79
2021/01/24 09:29:42;;;;;;;3.33;1.58;;;1.60;59.30;;;;;;5053645;28;20466;-79
2021/01/24 09:32:08;;;;;;;3.83;1.40;;;1.80;58.60;;;;;;5052097;28;20025;-76
2021/01/24 09:34:35;;;;;;;3.95;1.30;;;1.60;58.50;;;;;;5052144;28;20123;-78
2021/01/24 09:37:02;;;;;;;5.03;1.92;;;1.80;58.70;;;;;;5053577;28;20118;-75
2021/01/24 09:39:28;;;;;;;5.82;1.60;;;1.80;58.60;;;;;;5051969;28;20478;-79
2021/01/24 09:41:53;;;;;;;5.38;1.42;;;1.80;59.20;;;;;;5052101;28;20029;-79
2021/01/24 09:44:20;;;;;;;7.70;2.97;;;1.80;58.90;;;;;;5051885;28;20021;-80
2021/01/24 09:46:46;;;;;;;4.82;1.50;;;2.10;59.10;;;;;;5053468;28;20032;-79
2021/01/24 09:49:11;;;;;;;5.05;2.55;;;2.20;57.70;;;;;;5053309;28;20078;-79
2021/01/24 09:51:37;;;;;;;3.05;1.60;;;2.20;57.60;;;;;;5039752;28;20021;-80
2021/01/24 09:54:03;;;;;;;4.78;2.25;;;2.30;57.50;;;;;;5045471;28;20485;-80
2021/01/24 09:56:29;;;;;;;3.75;2.03;;;2.40;57.60;;;;;;5051906;28;20028;-80
2021/01/24 09:58:56;;;;;;;5.10;1.83;;;2.40;57.10;;;;;;5051844;28;20021;-80
2021/01/24 10:01:22;;;;;;;3.03;1.63;;;2.30;57.70;;;;;;5051426;28;20503;-80
2021/01/24 10:03:48;;;;;;;3.83;1.90;;;2.50;57.80;;;;;;5051174;28;20040;-80
2021/01/24 10:06:15;;;;;;;5.05;1.65;;;2.50;58.00;;;;;;5051650;28;20021;-79
2021/01/24 10:08:41;;;;;;;6.88;2.53;;;2.70;57.40;;;;;;5052245;28;20033;-78
2021/01/24 10:11:07;;;;;;;2.78;1.60;;;2.90;56.50;;;;;;5051661;28;20094;-81
2021/01/24 10:13:33;;;;;;;1.77;1.50;;;3.10;55.50;;;;;;5051650;28;20045;-82
2021/01/24 10:15:58;;;;;;;3.80;1.65;;;3.20;55.30;;;;;;5034822;28;20102;-81
2021/01/24 10:18:25;;;;;;;3.83;1.40;;;3.40;54.30;;;;;;5052844;28;20020;-80
2021/01/24 10:20:50;;;;;;;6.03;2.35;;;3.30;54.30;;;;;;5051710;28;20052;-80
2021/01/24 10:23:20;;;;;;;7.05;1.65;;;3.10;55.20;;;;;;5051556;28;20052;-81
2021/01/24 10:25:46;;;;;;;4.45;1.58;;;3.10;55.30;;;;;;5052895;28;20091;-80
2021/01/24 10:28:11;;;;;;;3.65;1.60;;;3.40;54.60;;;;;;5051593;28;20477;-80
2021/01/24 10:30:37;;;;;;;5.97;2.00;;;3.40;54.40;;;;;;5051429;28;20032;-79
2021/01/24 10:33:03;;;;;;;3.25;1.60;;;3.10;55.10;;;;;;5051363;28;20029;-79
2021/01/24 10:35:28;;;;;;;5.50;1.60;;;3.10;54.80;;;;;;5051522;28;20029;-80
2021/01/24 10:37:54;;;;;;;3.03;1.38;;;3.40;54.00;;;;;;5051341;28;20025;-79
2021/01/24 10:40:20;;;;;;;7.18;2.20;;;3.10;53.10;;;;;;5051037;28;20028;-77
2021/01/24 10:42:45;;;;;;;3.67;1.70;;;3.00;52.90;;;;;;5051246;28;20124;-80
2021/01/24 10:45:12;;;;;;;5.32;2.00;;;2.70;53.70;;;;;;5051210;28;20021;-76
2021/01/24 10:47:38;;;;;;;4.63;1.80;;;2.70;55.00;;;;;;5052552;28;20025;-76
2021/01/24 10:50:06;;;;;;;7.93;1.95;;;3.00;55.00;;;;;;5051148;28;20026;-80
2021/01/24 10:52:31;;;;;;;8.35;1.73;;;3.50;54.20;;;;;;5052544;28;20036;-75
2021/01/24 10:54:57;;;;;;;2.42;1.52;;;3.60;53.10;;;;;;5051209;28;20032;-80
2021/01/24 10:57:22;;;;;;;4.85;1.95;;;3.80;52.90;;;;;;5052463;28;20108;-79
2021/01/24 10:59:48;;;;;;;4.30;1.30;;;3.50;52.80;;;;;;5051299;28;20058;-76
2021/01/24 11:02:14;;;;;;;3.85;1.45;;;3.60;52.50;;;;;;5052223;28;20086;-78
2021/01/24 11:04:40;;;;;;;3.00;1.35;;;3.20;52.30;;;;;;5052226;28;20021;-79
2021/01/24 11:07:05;;;;;;;3.50;1.13;;;3.00;52.50;;;;;;5050961;28;20064;-80
2021/01/24 11:09:31;;;;;;;2.60;1.10;;;3.00;53.00;;;;;;5050818;28;20032;-79
2021/01/24 11:11:57;;;;;;;3.60;1.27;;;3.60;52.50;;;;;;5051200;28;20025;-79
2021/01/24 11:14:23;;;;;;;2.75;1.50;;;3.90;51.70;;;;;;5050994;28;20036;-78
2021/01/24 11:16:48;;;;;;;3.22;1.30;;;3.90;50.90;;;;;;5054317;28;20470;-79
2021/01/24 11:19:14;;;;;;;5.18;1.52;;;3.80;50.60;;;;;;5054375;28;20047;-81
2021/01/24 11:21:40;;;;;;;2.53;1.33;;;3.80;50.40;;;;;;5054845;28;20412;-80
2021/01/24 11:24:05;;;;;;;3.05;1.55;;;3.40;50.50;;;;;;5054813;28;20033;-80
2021/01/24 11:26:31;;;;;;;2.00;1.13;;;3.10;51.40;;;;;;5056065;28;20023;-79
2021/01/24 11:28:58;;;;;;;5.18;2.03;;;3.30;51.80;;;;;;5056104;28;20051;-80
2021/01/24 11:31:24;;;;;;;3.95;1.55;;;3.60;52.00;;;;;;5055574;28;20021;-81
2021/01/24 11:33:49;;;;;;;2.88;1.25;;;3.40;51.40;;;;;;5055814;28;20037;-80
2021/01/24 11:36:16;;;;;;;3.47;1.42;;;3.70;51.50;;;;;;5054014;28;20561;-79
2021/01/24 11:38:42;;;;;;;5.72;1.33;;;4.00;51.30;;;;;;5037821;28;20116;-80
2021/01/24 11:41:08;;;;;;;3.03;1.35;;;4.00;51.00;;;;;;5054256;28;20036;-81
2021/01/24 11:43:34;;;;;;;5.00;1.60;;;3.80;50.10;;;;;;5053884;28;20025;-79
2021/01/24 11:46:00;;;;;;;6.60;1.52;;;3.50;50.80;;;;;;5055534;28;20021;-80
2021/01/24 11:48:26;;;;;;;2.88;1.30;;;3.10;51.70;;;;;;5054122;28;20021;-79
2021/01/24 11:50:51;;;;;;;4.40;1.73;;;3.30;52.90;;;;;;5054399;28;20090;-80
2021/01/24 11:53:18;;;;;;;4.40;1.30;;;3.70;52.60;;;;;;5055081;28;20036;-79
2021/01/24 11:55:44;;;;;;;5.35;1.45;;;3.80;51.60;;;;;;5053689;28;20048;-78
2021/01/24 11:58:10;;;;;;;2.13;1.02;;;4.50;50.60;;;;;;5055353;28;20103;-76
2021/01/24 12:00:35;;;;;;;3.60;1.10;;;4.90;49.20;;;;;;5037071;28;20060;-76
2021/01/24 12:03:01;;;;;;;4.18;1.38;;;5.60;47.80;;;;;;5053651;28;20056;-76
2021/01/24 12:05:27;;;;;;;1.98;1.13;;;6.10;46.30;;;;;;5054787;28;20079;-76
2021/01/24 12:07:53;;;;;;;2.88;1.05;;;6.00;45.70;;;;;;5053561;28;20053;-75
2021/01/24 12:10:18;;;;;;;3.35;1.40;;;6.10;45.30;;;;;;5053704;28;20421;-76
2021/01/24 12:12:44;;;;;;;4.07;1.60;;;6.60;44.30;;;;;;5053332;28;20111;-80
2021/01/24 12:15:10;;;;;;;5.22;1.08;;;6.80;43.40;;;;;;5053331;28;20033;-77
2021/01/24 12:17:35;;;;;;;3.17;1.30;;;6.30;42.60;;;;;;5053560;28;20021;-78
2021/01/24 12:20:03;;;;;;;3.05;1.23;;;6.60;42.80;;;;;;5053124;28;20033;-78
2021/01/24 12:22:28;;;;;;;2.60;1.33;;;7.00;42.50;;;;;;5052966;28;20491;-78
2021/01/24 12:24:54;;;;;;;3.38;1.60;;;6.60;42.20;;;;;;5053136;28;20072;-78
2021/01/24 12:27:20;;;;;;;3.92;1.45;;;5.80;42.20;;;;;;5052452;28;20044;-78
2021/01/24 12:29:45;;;;;;;2.08;1.10;;;4.70;43.80;;;;;;5053386;28;20480;-78
2021/01/24 12:32:11;;;;;;;5.20;2.20;;;4.50;45.00;;;;;;5052998;28;20108;-78
2021/01/24 12:34:36;;;;;;;4.65;1.67;;;4.10;47.00;;;;;;5052878;28;20049;-79
2021/01/24 12:37:02;;;;;;;5.80;1.85;;;4.10;47.90;;;;;;5053105;28;20025;-78
2021/01/24 12:39:29;;;;;;;6.18;2.75;;;3.90;48.50;;;;;;5052828;28;20025;-79
2021/01/24 12:41:55;;;;;;;4.97;1.40;;;3.70;49.90;;;;;;5053231;28;20028;-81
2021/01/24 12:44:20;;;;;;;6.25;1.45;;;3.70;50.40;;;;;;5052735;28;20025;-79
2021/01/24 12:46:46;;;;;;;3.08;1.30;;;3.70;50.50;;;;;;5053325;28;20484;-79
2021/01/24 12:49:11;;;;;;;4.88;1.85;;;4.30;49.80;;;;;;5053149;28;20493;-79
2021/01/24 12:51:37;;;;;;;8.40;1.95;;;4.00;49.00;;;;;;5053163;28;20021;-81
2021/01/24 12:54:04;;;;;;;4.28;1.70;;;3.50;49.60;;;;;;5054274;28;20036;-81
2021/01/24 12:56:29;;;;;;;3.65;1.70;;;3.50;50.50;;;;;;5052876;28;20029;-81